Time;durP1;ratioP1;P1;durP2;ratioP2;P2;SDS_P1;SDS_P2;PMS_P1;PMS_P2;Temp;Humidity;BMP_temperature;BMP_pressure;BME280_temperature;BME280_humidity;BME280_pressure;Samples;Min_cycle;Max_cycle;Signal;HPM_P1;HPM_P2
2023/03/16 00:01:45;;;;;;;2.47;2.00;;;;;;;2.53;92.55;96882.44;5072796;28;20222;-57
2023/03/16 00:04:12;;;;;;;1.77;1.67;;;;;;;2.57;93.02;96883.94;5072333;28;20230;-59
2023/03/16 00:06:38;;;;;;;2.23;2.00;;;;;;;2.55;92.06;96885.78;5072335;28;20206;-56
2023/03/16 00:09:05;;;;;;;2.17;1.97;;;;;;;2.54;92.67;96884.13;5071925;28;20198;-56
2023/03/16 00:11:31;;;;;;;2.20;2.00;;;;;;;2.55;92.97;96877.94;5072365;28;20260;-56
2023/03/16 00:13:58;;;;;;;4.30;1.80;;;;;;;2.53;92.74;96876.34;5071488;28;20199;-57
2023/03/16 00:16:24;;;;;;;2.43;2.00;;;;;;;2.51;92.92;96879.06;5071286;28;20202;-56
2023/03/16 00:18:52;;;;;;;2.73;2.00;;;;;;;2.51;92.86;96885.13;5071541;28;20202;-56
2023/03/16 00:21:19;;;;;;;1.90;1.80;;;;;;;2.46;93.24;96881.09;5071065;28;20558;-57
2023/03/16 00:23:47;;;;;;;1.40;1.30;;;;;;;2.48;93.16;96882.69;5071193;28;20713;-57
2023/03/16 00:26:13;;;;;;;1.93;1.83;;;;;;;2.46;92.47;96883.72;5070876;28;20214;-56
2023/03/16 00:28:41;;;;;;;1.87;1.77;;;;;;;2.47;92.58;96882.78;5070909;28;20220;-57
2023/03/16 00:31:10;;;;;;;2.50;1.77;;;;;;;2.39;92.28;96879.75;5071350;28;20195;-56
2023/03/16 00:33:37;;;;;;;1.73;1.60;;;;;;;2.36;92.63;96879.94;5071299;28;20212;-57
2023/03/16 00:36:10;;;;;;;1.93;1.63;;;;;;;2.37;92.79;96881.63;5070175;28;20239;-57
2023/03/16 00:38:43;;;;;;;1.77;1.67;;;;;;;2.38;92.12;96878.91;5071285;28;20194;-56
2023/03/16 00:41:13;;;;;;;2.10;1.90;;;;;;;2.31;93.33;96876.75;5070718;28;20585;-56
2023/03/16 00:43:41;;;;;;;2.40;1.77;;;;;;;2.30;93.32;96875.09;5071117;28;20222;-57
2023/03/16 00:46:08;;;;;;;1.80;1.70;;;;;;;2.27;93.53;96872.63;5070492;28;20207;-57
2023/03/16 00:48:35;;;;;;;2.47;1.97;;;;;;;2.22;92.72;96882.50;5071268;28;20194;-57
2023/03/16 00:51:03;;;;;;;1.90;1.73;;;;;;;2.19;94.46;96872.25;5070284;28;20554;-56
2023/03/16 00:53:31;;;;;;;1.80;1.70;;;;;;;2.22;93.52;96867.69;5070787;28;20194;-56
2023/03/16 00:55:58;;;;;;;3.73;2.03;;;;;;;2.23;93.68;96873.75;5070879;28;20207;-56
2023/03/16 00:58:24;;;;;;;2.50;1.97;;;;;;;2.12;93.80;96868.28;5071354;28;20225;-56
2023/03/16 01:00:52;;;;;;;1.90;1.80;;;;;;;2.09;92.92;96873.69;5070260;28;20206;-57
2023/03/16 01:03:19;;;;;;;2.00;1.80;;;;;;;2.09;93.74;96871.06;5071034;28;20217;-56
2023/03/16 01:05:45;;;;;;;2.73;1.80;;;;;;;2.10;93.13;96862.31;5069947;28;20276;-56
2023/03/16 01:08:12;;;;;;;2.20;1.90;;;;;;;2.05;94.97;96849.53;5071163;28;20213;-56
2023/03/16 01:10:40;;;;;;;1.60;1.50;;;;;;;2.02;94.07;96860.13;5070822;28;20574;-57
2023/03/16 01:13:06;;;;;;;2.33;1.77;;;;;;;1.96;93.47;96850.88;5079148;28;20198;-56
2023/03/16 01:15:34;;;;;;;1.77;1.67;;;;;;;1.95;94.16;96854.41;5080641;28;20213;-56
2023/03/16 01:18:01;;;;;;;2.27;1.60;;;;;;;1.97;93.78;96857.78;5079155;28;20221;-55
2023/03/16 01:20:27;;;;;;;2.20;1.63;;;;;;;1.97;93.44;96852.56;5077579;28;20664;-57
2023/03/16 01:22:54;;;;;;;1.73;1.63;;;;;;;1.94;93.58;96852.75;5075172;28;20716;-55
2023/03/16 01:25:21;;;;;;;1.90;1.73;;;;;;;1.90;94.85;96847.78;5077012;28;20646;-57
2023/03/16 01:27:52;;;;;;;1.67;1.57;;;;;;;1.92;94.14;96851.13;5080871;28;20209;-57
2023/03/16 01:30:19;;;;;;;2.60;1.93;;;;;;;1.91;94.66;96846.88;5088601;28;20593;-56
2023/03/16 01:32:47;;;;;;;2.17;2.07;;;;;;;1.85;94.62;96837.59;5094474;28;20319;-57
2023/03/16 01:35:13;;;;;;;1.70;1.60;;;;;;;1.83;94.17;96834.25;5086238;28;20198;-57
2023/03/16 01:37:40;;;;;;;2.17;1.97;;;;;;;1.80;94.44;96842.25;5078463;28;20267;-57
2023/03/16 01:40:08;;;;;;;2.00;1.90;;;;;;;1.74;95.52;96837.34;5075546;28;20556;-57
2023/03/16 01:42:44;;;;;;;1.97;1.87;;;;;;;1.79;95.18;96830.13;5074270;28;20198;-57
2023/03/16 01:45:44;;;;;;;1.90;1.80;;;;;;;1.68;94.40;96823.81;5075340;28;20641;-56
2023/03/16 01:48:12;;;;;;;2.70;1.50;;;;;;;1.71;96.50;96814.06;5075270;28;20213;-56
2023/03/16 01:50:38;;;;;;;2.17;1.97;;;;;;;1.69;95.63;96813.31;5073521;28;20249;-57
2023/03/16 01:53:05;;;;;;;1.73;1.63;;;;;;;1.70;96.40;96816.78;5074638;28;20563;-57
2023/03/16 01:55:31;;;;;;;1.90;1.80;;;;;;;1.66;96.90;96823.91;5074380;28;20213;-57
2023/03/16 01:57:58;;;;;;;2.33;2.13;;;;;;;1.61;96.81;96818.09;5073805;28;20647;-57
2023/03/16 02:00:30;;;;;;;2.30;2.10;;;;;;;1.62;96.65;96817.19;5074032;28;20220;-57
2023/03/16 02:02:59;;;;;;;2.00;1.80;;;;;;;1.58;97.74;96822.66;5074582;28;20211;-55
2023/03/16 02:05:32;;;;;;;2.37;1.90;;;;;;;1.55;97.46;96813.25;5073775;28;20202;-57
2023/03/16 02:07:58;;;;;;;3.10;1.90;;;;;;;1.59;97.02;96826.94;5074077;28;20631;-57
2023/03/16 02:10:26;;;;;;;2.20;1.97;;;;;;;1.51;97.81;96827.34;5074357;28;20220;-55
2023/03/16 02:12:53;;;;;;;1.90;1.63;;;;;;;1.59;97.68;96827.78;5074130;28;20217;-56
2023/03/16 02:15:19;;;;;;;2.10;1.90;;;;;;;1.50;98.34;96825.66;5073899;28;20210;-57
2023/03/16 02:17:47;;;;;;;1.90;1.80;;;;;;;1.55;98.30;96815.00;5076059;28;20242;-56
2023/03/16 02:20:23;;;;;;;2.03;1.80;;;;;;;1.52;98.91;96818.63;5083793;28;20212;-56
2023/03/16 02:22:53;;;;;;;3.47;2.13;;;;;;;1.57;98.09;96821.81;5085123;28;20205;-56
2023/03/16 02:25:22;;;;;;;1.60;1.50;;;;;;;1.57;97.80;96819.19;5076916;28;20237;-56
2023/03/16 02:27:54;;;;;;;2.00;1.90;;;;;;;1.53;97.76;96820.28;5073741;28;20206;-56
2023/03/16 02:30:22;;;;;;;2.67;1.83;;;;;;;1.49;97.69;96822.22;5073235;28;20660;-57
2023/03/16 02:32:51;;;;;;;2.23;1.70;;;;;;;1.55;97.18;96821.06;5073524;28;20533;-57
2023/03/16 02:35:20;;;;;;;2.53;1.50;;;;;;;1.46;98.13;96818.94;5073003;28;20284;-55
2023/03/16 02:37:46;;;;;;;3.10;2.17;;;;;;;1.42;98.30;96818.25;5072210;28;20226;-57
2023/03/16 02:40:21;;;;;;;2.20;1.87;;;;;;;1.44;98.61;96813.81;5073580;28;20202;-57
2023/03/16 02:42:48;;;;;;;4.83;1.77;;;;;;;1.43;98.32;96811.28;5072607;28;20287;-57
2023/03/16 02:45:15;;;;;;;1.60;1.50;;;;;;;1.47;97.70;96810.22;5072952;28;20224;-55
2023/03/16 02:47:44;;;;;;;2.60;2.23;;;;;;;1.40;98.97;96814.91;5073395;28;20206;-56
2023/03/16 02:50:12;;;;;;;2.13;1.90;;;;;;;1.34;99.23;96802.22;5072448;28;20230;-57
2023/03/16 02:52:39;;;;;;;1.70;1.60;;;;;;;1.37;99.17;96806.41;5072991;28;20206;-56
2023/03/16 02:55:09;;;;;;;2.50;1.97;;;;;;;1.46;98.03;96808.50;5072844;28;20221;-56
2023/03/16 02:57:35;;;;;;;1.53;1.40;;;;;;;1.43;98.22;96808.69;5072208;28;20217;-57
2023/03/16 03:00:06;;;;;;;1.97;1.80;;;;;;;1.40;98.71;96808.84;5073049;28;20205;-57
2023/03/16 03:02:32;;;;;;;1.70;1.60;;;;;;;1.39;98.98;96810.63;5072206;28;20206;-56
2023/03/16 03:05:01;;;;;;;2.10;2.00;;;;;;;1.40;99.39;96811.47;5072988;28;20241;-55
2023/03/16 03:07:30;;;;;;;3.77;1.80;;;;;;;1.35;99.92;96816.06;5071247;28;20214;-55
2023/03/16 03:09:57;;;;;;;1.60;1.50;;;;;;;1.41;98.78;96815.75;5073090;28;20275;-57
2023/03/16 03:12:23;;;;;;;2.20;2.00;;;;;;;1.35;98.66;96811.69;5072957;28;20244;-56
2023/03/16 03:14:50;;;;;;;2.27;2.03;;;;;;;1.35;99.89;96821.28;5073136;28;20522;-57
2023/03/16 03:17:16;;;;;;;2.00;1.80;;;;;;;1.36;99.68;96817.75;5071969;28;20297;-57
2023/03/16 03:19:43;;;;;;;1.90;1.70;;;;;;;1.34;100.00;96817.84;5072561;28;20588;-55
2023/03/16 03:22:11;;;;;;;2.80;1.70;;;;;;;1.40;99.60;96809.69;5072069;28;20209;-55
2023/03/16 03:24:37;;;;;;;2.20;2.00;;;;;;;1.37;99.16;96804.66;5072679;28;20661;-56
2023/03/16 03:27:04;;;;;;;2.20;2.00;;;;;;;1.33;99.17;96807.50;5072339;28;20209;-57
2023/03/16 03:29:33;;;;;;;3.37;2.00;;;;;;;1.33;98.20;96797.94;5072422;28;20233;-56
2023/03/16 03:32:00;;;;;;;2.60;2.13;;;;;;;1.35;98.36;96808.25;5072150;28;20213;-56
2023/03/16 03:34:26;;;;;;;3.83;2.17;;;;;;;1.33;100.00;96797.94;5072680;28;20206;-56
2023/03/16 03:36:53;;;;;;;2.13;1.80;;;;;;;1.35;99.18;96793.47;5071213;28;20217;-56
2023/03/16 03:39:21;;;;;;;2.17;1.97;;;;;;;1.34;99.36;96794.41;5072190;28;20210;-56
2023/03/16 03:41:47;;;;;;;2.20;2.10;;;;;;;1.35;99.06;96790.00;5071994;28;20236;-56
2023/03/16 03:44:14;;;;;;;2.20;2.00;;;;;;;1.31;100.00;96793.75;5073143;28;20692;-57
2023/03/16 03:46:40;;;;;;;2.10;1.93;;;;;;;1.24;100.00;96790.59;5072640;28;20207;-56
2023/03/16 03:49:08;;;;;;;1.77;1.67;;;;;;;1.22;100.00;96789.84;5071526;28;20244;-57
2023/03/16 03:51:34;;;;;;;1.70;1.60;;;;;;;1.27;100.00;96792.22;5071248;28;20204;-56
2023/03/16 03:54:01;;;;;;;2.10;1.90;;;;;;;1.21;100.00;96789.91;5074068;28;20307;-56
2023/03/16 03:56:29;;;;;;;1.80;1.67;;;;;;;1.23;100.00;96778.53;5093388;28;20211;-55
2023/03/16 03:58:55;;;;;;;2.30;2.10;;;;;;;1.23;100.00;96785.50;5094651;28;20220;-56
2023/03/16 04:01:22;;;;;;;2.03;1.83;;;;;;;1.25;100.00;96778.41;5089746;28;20212;-57
2023/03/16 04:03:48;;;;;;;1.90;1.70;;;;;;;1.21;100.00;96785.56;5075035;28;20237;-56
2023/03/16 04:06:15;;;;;;;2.07;1.90;;;;;;;1.18;100.00;96779.69;5073016;28;20629;-56
2023/03/16 04:08:41;;;;;;;2.23;1.80;;;;;;;1.13;100.00;96781.69;5072699;28;20299;-56
2023/03/16 04:11:08;;;;;;;2.57;2.37;;;;;;;1.11;100.00;96784.38;5071340;28;20214;-57
2023/03/16 04:13:36;;;;;;;1.90;1.80;;;;;;;1.17;100.00;96785.84;5072454;28;20293;-56
2023/03/16 04:16:03;;;;;;;2.30;2.10;;;;;;;1.16;100.00;96789.34;5071482;28;20221;-57
2023/03/16 04:18:29;;;;;;;1.97;1.80;;;;;;;1.12;100.00;96783.47;5071593;28;20854;-57
2023/03/16 04:20:56;;;;;;;2.40;1.87;;;;;;;1.05;100.00;96776.91;5070671;28;20214;-57
2023/03/16 04:23:23;;;;;;;1.97;1.53;;;;;;;1.07;100.00;96779.41;5071871;28;20208;-56
2023/03/16 04:25:50;;;;;;;2.87;2.10;;;;;;;1.06;100.00;96773.38;5070976;28;20214;-57
2023/03/16 04:28:17;;;;;;;1.90;1.80;;;;;;;1.04;100.00;96774.38;5071610;28;20202;-56
2023/03/16 04:30:44;;;;;;;2.07;1.97;;;;;;;1.03;100.00;96772.72;5070156;28;20213;-56
2023/03/16 04:33:11;;;;;;;2.20;2.00;;;;;;;1.11;100.00;96771.34;5071396;28;20237;-57
2023/03/16 04:35:37;;;;;;;2.00;1.90;;;;;;;1.11;100.00;96767.91;5070177;28;20213;-56
2023/03/16 04:38:04;;;;;;;1.73;1.63;;;;;;;1.09;100.00;96768.00;5071107;28;20206;-58
2023/03/16 04:40:30;;;;;;;2.83;2.00;;;;;;;1.04;100.00;96774.38;5071574;28;20211;-57
2023/03/16 04:42:57;;;;;;;1.77;1.63;;;;;;;1.12;100.00;96769.59;5071270;28;20237;-56
2023/03/16 04:45:23;;;;;;;2.07;1.90;;;;;;;1.14;100.00;96770.34;5070587;28;20233;-55
2023/03/16 04:47:51;;;;;;;1.90;1.80;;;;;;;1.09;100.00;96767.16;5071406;28;20210;-56
2023/03/16 04:50:18;;;;;;;2.10;1.97;;;;;;;1.05;100.00;96765.63;5070490;28;20248;-55
2023/03/16 04:52:45;;;;;;;2.00;1.90;;;;;;;1.00;100.00;96769.31;5070553;28;20210;-56
2023/03/16 04:55:11;;;;;;;1.93;1.83;;;;;;;1.00;100.00;96768.47;5070230;28;20550;-56
2023/03/16 04:57:38;;;;;;;2.70;2.00;;;;;;;1.07;100.00;96763.78;5070982;28;20320;-56
2023/03/16 05:00:10;;;;;;;2.07;1.90;;;;;;;0.98;100.00;96771.19;5069436;28;20206;-56
2023/03/16 05:02:36;;;;;;;2.73;1.70;;;;;;;1.04;100.00;96763.94;5070706;28;20288;-56
2023/03/16 05:05:05;;;;;;;4.30;1.97;;;;;;;0.99;100.00;96766.81;5070701;28;20243;-56
2023/03/16 05:07:33;;;;;;;3.40;2.20;;;;;;;0.95;100.00;96768.75;5070322;28;20217;-57
2023/03/16 05:09:59;;;;;;;2.17;1.97;;;;;;;0.94;100.00;96764.44;5070137;28;20208;-56
2023/03/16 05:12:26;;;;;;;2.03;1.83;;;;;;;0.91;100.00;96769.81;5071130;28;20205;-56
2023/03/16 05:14:52;;;;;;;2.57;2.00;;;;;;;0.96;100.00;96757.38;5079500;28;20213;-57
2023/03/16 05:17:19;;;;;;;2.20;1.83;;;;;;;0.92;100.00;96763.69;5079463;28;20213;-56
2023/03/16 05:19:45;;;;;;;4.00;2.10;;;;;;;1.00;100.00;96765.88;5086986;28;20218;-55
2023/03/16 05:22:13;;;;;;;4.00;2.10;;;;;;;0.97;100.00;96766.88;5086362;28;20196;-56
2023/03/16 05:24:39;;;;;;;1.83;1.60;;;;;;;0.93;100.00;96767.97;5081257;28;20240;-57
2023/03/16 05:27:06;;;;;;;2.40;1.93;;;;;;;0.92;100.00;96758.47;5076149;28;20216;-57
2023/03/16 05:29:33;;;;;;;2.37;1.90;;;;;;;0.92;100.00;96755.06;5070780;28;20213;-56
2023/03/16 05:31:59;;;;;;;2.20;2.00;;;;;;;0.93;100.00;96757.56;5070693;28;20205;-56
2023/03/16 05:34:26;;;;;;;2.60;1.83;;;;;;;0.94;100.00;96754.03;5071171;28;20205;-57
2023/03/16 05:36:53;;;;;;;2.50;2.30;;;;;;;0.94;100.00;96756.66;5070556;28;20202;-57
2023/03/16 05:39:23;;;;;;;3.73;2.50;;;;;;;0.95;100.00;96754.88;5069498;28;20648;-57
2023/03/16 05:41:49;;;;;;;2.53;2.10;;;;;;;0.96;100.00;96746.13;5070420;28;20197;-57
2023/03/16 05:44:16;;;;;;;1.97;1.80;;;;;;;0.91;100.00;96749.00;5070559;28;20237;-58
2023/03/16 05:46:44;;;;;;;3.00;1.80;;;;;;;0.96;100.00;96746.13;5070703;28;20661;-57
2023/03/16 05:49:11;;;;;;;2.50;2.30;;;;;;;0.98;100.00;96750.34;5070661;28;20241;-57
2023/03/16 05:51:38;;;;;;;3.57;2.20;;;;;;;1.05;100.00;96750.03;5070003;28;20542;-57
2023/03/16 05:54:05;;;;;;;2.37;2.17;;;;;;;1.08;100.00;96749.84;5069399;28;20634;-55
2023/03/16 05:56:33;;;;;;;2.50;2.30;;;;;;;1.09;100.00;96748.94;5069814;28;20209;-56
2023/03/16 05:59:00;;;;;;;2.13;2.03;;;;;;;1.16;100.00;96747.69;5070244;28;20643;-56
2023/03/16 06:01:27;;;;;;;2.03;1.80;;;;;;;1.25;100.00;96752.38;5070593;28;20218;-58
2023/03/16 06:03:54;;;;;;;4.10;2.43;;;;;;;1.32;100.00;96748.50;5070594;28;20217;-56
2023/03/16 06:06:21;;;;;;;3.20;2.60;;;;;;;1.48;100.00;96751.97;5069938;28;20225;-57
2023/03/16 06:08:48;;;;;;;2.70;2.50;;;;;;;1.69;100.00;96755.13;5070924;28;20525;-56
2023/03/16 06:11:14;;;;;;;3.00;2.80;;;;;;;2.13;100.00;96757.78;5070467;28;20271;-55
2023/03/16 06:13:42;;;;;;;2.87;2.57;;;;;;;2.48;98.42;96754.78;5074445;28;20517;-55
2023/03/16 06:16:10;;;;;;;2.43;2.30;;;;;;;3.04;96.74;96758.38;5074016;28;20195;-56
2023/03/16 06:18:37;;;;;;;3.07;2.80;;;;;;;3.71;90.62;96760.19;5073478;28;20205;-55
2023/03/16 06:21:03;;;;;;;3.03;2.43;;;;;;;4.32;87.37;96757.00;5072774;28;20290;-57
2023/03/16 06:23:30;;;;;;;2.60;2.33;;;;;;;4.35;86.11;96763.84;5092410;28;20206;-56
2023/03/16 06:25:58;;;;;;;4.50;2.67;;;;;;;4.68;84.70;96758.94;5092251;28;20214;-55
2023/03/16 06:28:24;;;;;;;3.40;2.77;;;;;;;5.08;82.77;96759.66;5095454;28;20198;-54
2023/03/16 06:30:54;;;;;;;4.73;2.90;;;;;;;5.65;79.04;96759.97;5080870;28;20198;-55
2023/03/16 06:33:21;;;;;;;3.37;3.00;;;;;;;5.91;78.21;96769.44;5077778;28;20574;-56
2023/03/16 06:35:48;;;;;;;3.87;3.20;;;;;;;6.08;76.63;96759.50;5075262;28;20202;-56
2023/03/16 06:38:16;;;;;;;2.73;2.40;;;;;;;5.99;74.64;96763.63;5074380;28;20222;-56
2023/03/16 06:40:43;;;;;;;3.70;3.20;;;;;;;6.06;75.78;96761.41;5074715;28;20232;-56
2023/03/16 06:43:10;;;;;;;3.00;2.57;;;;;;;6.39;73.49;96772.88;5074972;28;20206;-56
2023/03/16 06:45:36;;;;;;;2.70;2.47;;;;;;;6.41;72.25;96768.31;5075126;28;20215;-55
2023/03/16 06:48:05;;;;;;;4.83;2.57;;;;;;;7.60;67.81;96770.50;5074659;28;20585;-55
2023/03/16 06:50:32;;;;;;;2.90;2.70;;;;;;;8.56;64.20;96781.13;5072834;28;20632;-55
2023/03/16 06:52:58;;;;;;;3.50;2.70;;;;;;;9.08;61.73;96781.03;5072873;28;20686;-55
2023/03/16 06:55:25;;;;;;;3.97;2.50;;;;;;;9.58;59.17;96792.53;5073178;28;20210;-55
2023/03/16 06:57:51;;;;;;;3.40;2.30;;;;;;;10.05;57.75;96787.53;5072931;28;20210;-56
2023/03/16 07:00:19;;;;;;;2.90;2.60;;;;;;;10.06;57.06;96789.22;5073308;28;20206;-57
2023/03/16 07:02:45;;;;;;;3.10;2.77;;;;;;;9.14;60.02;96788.44;5073512;28;20198;-56
2023/03/16 07:05:13;;;;;;;3.03;2.50;;;;;;;8.89;59.84;96788.88;5073350;28;20241;-56
2023/03/16 07:07:42;;;;;;;2.80;2.60;;;;;;;7.97;63.21;96792.91;5074077;28;20209;-56
2023/03/16 07:10:11;;;;;;;4.87;2.70;;;;;;;7.31;66.77;96791.19;5073768;28;20206;-55
2023/03/16 07:12:38;;;;;;;2.80;2.60;;;;;;;6.96;66.72;96800.97;5074644;28;20207;-55
2023/03/16 07:15:07;;;;;;;2.90;2.60;;;;;;;6.41;70.45;96794.59;5090256;28;20203;-55
2023/03/16 07:17:33;;;;;;;5.00;2.80;;;;;;;5.95;72.13;96796.31;5092536;28;20198;-56
2023/03/16 07:20:04;;;;;;;3.73;2.73;;;;;;;5.93;73.54;96793.78;5092439;28;20175;-55
2023/03/16 07:22:32;;;;;;;3.33;2.90;;;;;;;5.69;73.74;96803.38;5092521;28;20208;-55
2023/03/16 07:24:58;;;;;;;3.33;2.73;;;;;;;5.68;73.81;96803.50;5090726;28;20219;-56
2023/03/16 07:27:25;;;;;;;5.33;2.90;;;;;;;5.44;76.53;96806.06;5095353;28;20203;-54
2023/03/16 07:29:51;;;;;;;2.90;2.70;;;;;;;5.36;77.01;96805.75;5094449;28;20243;-54
2023/03/16 07:32:18;;;;;;;2.70;2.50;;;;;;;5.35;76.59;96801.47;5090922;28;20214;-59
2023/03/16 07:34:44;;;;;;;5.03;2.83;;;;;;;5.20;74.06;96815.66;5092002;28;20203;-56
2023/03/16 07:37:11;;;;;;;3.67;2.77;;;;;;;5.14;75.38;96798.53;5093908;28;20646;-58
2023/03/16 07:39:39;;;;;;;3.00;2.80;;;;;;;5.23;77.53;96805.78;5093309;28;20225;-56
2023/03/16 07:42:06;;;;;;;4.47;2.87;;;;;;;5.05;76.27;96808.84;5089205;28;20214;-55
2023/03/16 07:44:32;;;;;;;2.60;2.40;;;;;;;5.13;76.72;96806.53;5087790;28;20198;-61
2023/03/16 07:46:59;;;;;;;2.63;2.43;;;;;;;5.20;77.51;96813.03;5095639;28;20232;-58
2023/03/16 07:49:26;;;;;;;3.63;3.00;;;;;;;4.90;77.86;96806.31;5095667;28;20230;-56
2023/03/16 07:51:53;;;;;;;3.83;3.00;;;;;;;5.09;76.91;96805.91;5097375;28;20246;-55
2023/03/16 07:54:19;;;;;;;3.13;2.80;;;;;;;5.14;75.79;96798.53;5096144;28;20190;-55
2023/03/16 07:56:47;;;;;;;3.67;2.40;;;;;;;5.17;75.61;96795.72;5092274;28;20203;-56
2023/03/16 07:59:14;;;;;;;2.70;2.50;;;;;;;5.18;75.84;96789.53;5093768;28;20217;-57
2023/03/16 08:01:40;;;;;;;2.87;2.63;;;;;;;5.23;74.44;96787.44;5093909;28;20191;-55
2023/03/16 08:04:07;;;;;;;3.27;3.00;;;;;;;5.11;75.92;96783.03;5074009;28;20202;-56
2023/03/16 08:06:33;;;;;;;2.83;2.63;;;;;;;5.22;76.28;96777.88;5073200;28;20222;-54
2023/03/16 08:09:01;;;;;;;4.07;3.03;;;;;;;5.39;76.54;96776.69;5073482;28;20210;-56
2023/03/16 08:11:27;;;;;;;3.40;3.10;;;;;;;5.60;74.91;96771.75;5072557;28;20210;-54
2023/03/16 08:13:55;;;;;;;4.33;3.30;;;;;;;5.66;74.20;96784.41;5071989;28;20435;-56
2023/03/16 08:16:22;;;;;;;3.03;2.73;;;;;;;5.88;72.09;96784.59;5072174;28;20592;-55
2023/03/16 08:18:49;;;;;;;3.17;2.87;;;;;;;6.04;71.13;96789.53;5072025;28;20210;-55
2023/03/16 08:21:15;;;;;;;2.70;2.50;;;;;;;6.20;71.85;96784.88;5072069;28;20222;-55
2023/03/16 08:23:47;;;;;;;2.77;2.57;;;;;;;6.20;69.63;96779.59;5071850;28;20214;-56
2023/03/16 08:26:14;;;;;;;2.90;2.63;;;;;;;6.27;71.98;96776.38;5081700;28;20271;-57
2023/03/16 08:28:41;;;;;;;3.53;2.90;;;;;;;6.31;69.43;96777.84;5081184;28;20202;-54
2023/03/16 08:31:09;;;;;;;7.27;3.10;;;;;;;6.37;70.32;96760.81;5080251;28;20206;-55
2023/03/16 08:33:35;;;;;;;3.30;2.53;;;;;;;6.35;67.94;96747.78;5080736;28;20211;-55
2023/03/16 08:36:02;;;;;;;3.20;2.90;;;;;;;6.39;67.72;96735.25;5080058;28;20195;-53
2023/03/16 08:38:28;;;;;;;2.70;2.50;;;;;;;6.41;66.65;96730.75;5077842;28;20199;-55
2023/03/16 08:40:56;;;;;;;2.93;2.70;;;;;;;6.49;67.60;96733.59;5077375;28;20195;-56
2023/03/16 08:43:22;;;;;;;3.63;2.60;;;;;;;6.63;67.46;96745.69;5077342;28;20556;-55
2023/03/16 08:45:49;;;;;;;4.47;2.73;;;;;;;6.67;67.63;96747.97;5077334;28;20242;-55
2023/03/16 08:48:17;;;;;;;3.00;2.67;;;;;;;6.72;67.28;96745.84;5075958;28;20202;-56
2023/03/16 08:50:45;;;;;;;6.60;3.10;;;;;;;6.78;66.24;96740.13;5076466;28;20210;-56
2023/03/16 08:53:13;;;;;;;6.90;2.97;;;;;;;6.98;64.23;96742.03;5081233;28;20289;-54
2023/03/16 08:55:40;;;;;;;7.47;2.40;;;;;;;7.09;63.89;96743.84;5081790;28;20203;-56
2023/03/16 08:58:07;;;;;;;3.17;2.20;;;;;;;7.04;61.66;96739.91;5074307;28;20198;-55
2023/03/16 09:00:34;;;;;;;2.87;2.63;;;;;;;7.03;62.71;96739.06;5075042;28;20194;-55
2023/03/16 09:03:01;;;;;;;3.20;2.53;;;;;;;7.08;63.01;96754.50;5074345;28;20202;-56
2023/03/16 09:05:30;;;;;;;2.43;2.20;;;;;;;7.04;60.62;96751.25;5071159;28;20222;-56
2023/03/16 09:07:58;;;;;;;4.83;2.33;;;;;;;7.24;61.09;96757.59;5071360;28;20264;-54
2023/03/16 09:10:26;;;;;;;3.63;2.10;;;;;;;7.56;61.26;96741.91;5069847;28;20210;-55
2023/03/16 09:12:53;;;;;;;2.83;1.87;;;;;;;7.80;59.87;96746.03;5070895;28;20198;-55
2023/03/16 09:15:20;;;;;;;3.07;2.47;;;;;;;8.08;58.97;96738.56;5071057;28;20202;-54
2023/03/16 09:17:49;;;;;;;2.60;1.77;;;;;;;8.30;56.02;96738.47;5070786;28;20762;-55
2023/03/16 09:20:17;;;;;;;3.00;2.20;;;;;;;8.74;57.93;96737.41;5070625;28;20263;-56
2023/03/16 09:22:45;;;;;;;4.97;2.30;;;;;;;9.13;55.47;96743.72;5071020;28;20225;-54
2023/03/16 09:25:13;;;;;;;3.37;2.23;;;;;;;9.24;54.17;96749.75;5070277;28;20910;-55
2023/03/16 09:27:39;;;;;;;5.13;2.20;;;;;;;9.61;54.33;96747.38;5071048;28;20203;-53
2023/03/16 09:30:08;;;;;;;5.83;2.80;;;;;;;9.88;53.47;96752.06;5070354;28;20207;-56
2023/03/16 09:32:36;;;;;;;3.90;2.70;;;;;;;10.18;52.42;96748.50;5070917;28;20202;-55
2023/03/16 09:35:03;;;;;;;2.67;2.40;;;;;;;10.53;51.22;96732.91;5070528;28;20198;-56
2023/03/16 09:37:31;;;;;;;3.20;2.40;;;;;;;10.82;50.87;96728.41;5070506;28;20198;-55
2023/03/16 09:39:59;;;;;;;2.50;2.30;;;;;;;11.09;51.13;96718.91;5070134;28;20270;-55
2023/03/16 09:42:30;;;;;;;2.17;1.97;;;;;;;11.51;48.68;96712.16;5070569;28;20344;-55
2023/03/16 09:45:06;;;;;;;5.77;2.07;;;;;;;12.13;49.13;96715.84;5069620;28;20217;-56
2023/03/16 09:47:34;;;;;;;2.10;1.90;;;;;;;12.40;47.00;96724.56;5072922;28;20217;-56
2023/03/16 09:50:05;;;;;;;3.10;2.40;;;;;;;12.57;46.38;96722.91;5073689;28;20245;-54
2023/03/16 09:52:37;;;;;;;4.93;2.40;;;;;;;12.69;46.35;96719.00;5073471;28;20646;-55
2023/03/16 09:55:09;;;;;;;3.83;2.27;;;;;;;12.66;44.45;96719.31;5074509;28;20213;-56
2023/03/16 09:57:38;;;;;;;5.97;2.30;;;;;;;12.86;45.69;96711.97;5074423;28;20279;-54
2023/03/16 10:00:16;;;;;;;3.13;2.20;;;;;;;13.05;43.54;96714.44;5074384;28;20297;-55
2023/03/16 10:02:49;;;;;;;2.80;2.20;;;;;;;13.35;43.46;96715.81;5074382;28;20205;-56
2023/03/16 10:05:20;;;;;;;2.97;1.87;;;;;;;13.11;42.50;96710.38;5073738;28;20230;-55
2023/03/16 10:07:53;;;;;;;3.73;2.17;;;;;;;13.48;42.52;96713.56;5074414;28;20206;-56
2023/03/16 10:10:37;;;;;;;5.33;2.23;;;;;;;13.35;41.93;96706.03;5074569;28;20202;-55
2023/03/16 10:13:05;;;;;;;5.10;2.43;;;;;;;12.76;42.88;96704.13;5074618;28;20202;-55
2023/03/16 10:15:36;;;;;;;5.30;2.63;;;;;;;12.84;42.79;96706.84;5073965;28;20860;-56
2023/03/16 10:18:06;;;;;;;2.37;2.00;;;;;;;12.84;41.59;96712.16;5073769;28;20591;-55
2023/03/16 10:20:35;;;;;;;3.73;2.40;;;;;;;12.79;42.89;96698.50;5072821;28;20210;-55
2023/03/16 10:23:13;;;;;;;3.37;2.37;;;;;;;12.79;42.46;96692.38;5074080;28;20230;-54
2023/03/16 10:25:44;;;;;;;2.47;2.27;;;;;;;13.37;42.86;96681.94;5073835;28;20241;-56
2023/03/16 10:28:15;;;;;;;2.43;2.17;;;;;;;13.75;43.46;96676.13;5073301;28;20651;-56
2023/03/16 10:30:42;;;;;;;4.40;2.40;;;;;;;14.28;43.12;96677.53;5072196;28;20217;-56
2023/03/16 10:33:18;;;;;;;2.50;2.30;;;;;;;14.44;41.49;96666.97;5073297;28;20227;-56
2023/03/16 10:35:48;;;;;;;4.70;2.30;;;;;;;14.39;40.25;96670.09;5073576;28;20281;-55
2023/03/16 10:38:37;;;;;;;3.03;2.10;;;;;;;14.79;40.00;96674.59;5073752;28;20207;-55
2023/03/16 10:41:06;;;;;;;3.43;2.50;;;;;;;15.19;40.82;96672.84;5073638;28;20199;-55
2023/03/16 10:43:35;;;;;;;6.68;2.70;;;;;;;15.20;39.48;96675.31;5075745;28;20277;-55
2023/03/16 10:46:02;;;;;;;2.53;2.33;;;;;;;14.91;38.43;96667.91;5073948;28;20402;-56
2023/03/16 10:48:34;;;;;;;4.35;2.40;;;;;;;14.16;39.96;96668.22;5073731;28;20266;-56
2023/03/16 10:51:04;;;;;;;4.13;2.47;;;;;;;14.17;39.54;96659.28;5073052;28;20203;-55
2023/03/16 10:53:32;;;;;;;2.53;2.33;;;;;;;14.03;39.26;96649.28;5073013;28;20539;-55
2023/03/16 10:56:00;;;;;;;2.78;2.58;;;;;;;14.10;39.71;96658.25;5073495;28;20214;-55
2023/03/16 10:58:31;;;;;;;2.17;2.00;;;;;;;15.27;37.94;96643.50;5072386;28;20597;-55
2023/03/16 11:00:58;;;;;;;2.50;2.30;;;;;;;15.60;37.14;96639.72;5073557;28;20210;-55
2023/03/16 11:03:28;;;;;;;2.63;2.42;;;;;;;15.94;35.32;96640.19;5073098;28;20202;-56
2023/03/16 11:06:00;;;;;;;2.90;2.55;;;;;;;16.24;35.93;96637.69;5094457;28;20206;-54
2023/03/16 11:08:28;;;;;;;2.28;2.13;;;;;;;15.93;36.56;96637.72;5095213;28;20191;-53
2023/03/16 11:10:57;;;;;;;3.10;2.38;;;;;;;15.36;37.64;96637.16;5096074;28;20182;-54
2023/03/16 11:13:25;;;;;;;2.92;2.40;;;;;;;15.36;38.21;96634.50;5095870;28;20191;-53
2023/03/16 11:15:57;;;;;;;2.63;2.00;;;;;;;15.45;38.18;96638.75;5092211;28;20191;-55
2023/03/16 11:18:29;;;;;;;2.63;2.20;;;;;;;15.28;36.85;96637.19;5087873;28;20229;-56
2023/03/16 11:20:56;;;;;;;2.85;2.25;;;;;;;15.01;35.27;96626.94;5088600;28;20248;-54
2023/03/16 11:23:29;;;;;;;2.25;2.05;;;;;;;14.82;35.93;96633.47;5081118;28;20256;-55
2023/03/16 11:25:57;;;;;;;1.65;1.55;;;;;;;14.89;35.18;96629.97;5073105;28;20242;-54
2023/03/16 11:28:32;;;;;;;2.50;1.88;;;;;;;15.04;31.98;96626.59;5076249;28;20256;-54
2023/03/16 11:31:07;;;;;;;2.10;2.00;;;;;;;15.13;34.05;96641.53;5073102;28;20198;-55
2023/03/16 11:33:34;;;;;;;2.53;1.88;;;;;;;16.01;35.31;96652.84;5073606;28;20197;-55
2023/03/16 11:36:12;;;;;;;2.38;2.17;;;;;;;16.08;35.76;96645.81;5071896;28;20728;-55
2023/03/16 11:38:45;;;;;;;3.90;2.50;;;;;;;16.19;33.47;96645.41;5073603;28;20531;-56
2023/03/16 11:41:13;;;;;;;1.67;1.58;;;;;;;16.50;32.17;96632.81;5072360;28;20329;-55
2023/03/16 11:43:51;;;;;;;1.95;1.75;;;;;;;16.50;33.33;96632.81;5073280;28;20214;-56